Time;durP1;ratioP1;P1;durP2;ratioP2;P2;SDS_P1;SDS_P2;PMS_P1;PMS_P2;Temp;Humidity;BMP_temperature;BMP_pressure;BME280_temperature;BME280_humidity;BME280_pressure;Samples;Min_cycle;Max_cycle;Signal;HPM_P1;HPM_P2
2022/03/29 00:01:58;;;;;;;25.33;20.50;;;12.60;84.30;;;;;;5116848;28;20056;-82
2022/03/29 00:04:24;;;;;;;25.85;22.25;;;12.60;84.40;;;;;;5098583;28;20466;-82
2022/03/29 00:06:51;;;;;;;26.80;20.13;;;12.50;84.60;;;;;;5081846;28;20119;-81
2022/03/29 00:09:17;;;;;;;28.20;20.08;;;12.50;84.80;;;;;;5097942;28;20032;-81
2022/03/29 00:11:43;;;;;;;28.50;21.15;;;12.50;85.10;;;;;;5098542;28;20439;-82
2022/03/29 00:14:09;;;;;;;26.33;20.95;;;12.40;85.20;;;;;;5098602;28;20035;-82
2022/03/29 00:16:35;;;;;;;29.50;21.98;;;12.40;85.10;;;;;;5081849;28;20023;-81
2022/03/29 00:19:01;;;;;;;29.60;20.38;;;12.30;85.30;;;;;;5116699;28;20028;-82
2022/03/29 00:21:27;;;;;;;25.05;20.58;;;12.30;85.40;;;;;;5116487;28;20032;-81
2022/03/29 00:23:52;;;;;;;26.02;21.05;;;12.30;85.80;;;;;;5098324;28;20020;-81
2022/03/29 00:26:19;;;;;;;26.05;21.23;;;12.20;85.80;;;;;;5115966;28;20031;-82
2022/03/29 00:28:44;;;;;;;29.48;21.30;;;12.20;85.90;;;;;;5098217;28;20043;-82
2022/03/29 00:31:11;;;;;;;26.88;21.10;;;12.10;86.30;;;;;;5098101;28;20457;-82
2022/03/29 00:33:37;;;;;;;25.15;20.48;;;12.10;86.20;;;;;;5081494;28;20030;-82
2022/03/29 00:36:03;;;;;;;27.83;21.92;;;12.10;86.60;;;;;;5097942;28;20074;-82
2022/03/29 00:38:28;;;;;;;30.52;22.27;;;12.10;86.90;;;;;;5097759;28;20023;-81
2022/03/29 00:40:55;;;;;;;26.90;22.55;;;12.00;86.80;;;;;;5097680;28;20389;-82
2022/03/29 00:43:21;;;;;;;29.80;21.73;;;12.00;86.80;;;;;;5097632;28;20515;-82
2022/03/29 00:45:46;;;;;;;26.98;21.35;;;11.90;87.00;;;;;;5116139;28;20149;-82
2022/03/29 00:48:13;;;;;;;28.33;22.15;;;11.90;87.30;;;;;;5115876;28;20149;-82
2022/03/29 00:50:40;;;;;;;29.67;21.38;;;11.90;87.40;;;;;;5098296;28;20498;-82
2022/03/29 00:53:08;;;;;;;27.92;21.13;;;11.80;87.40;;;;;;5097698;28;20020;-81
2022/03/29 00:55:34;;;;;;;29.27;21.95;;;11.80;87.80;;;;;;5096712;28;20031;-82
2022/03/29 00:58:02;;;;;;;28.30;21.77;;;11.80;88.00;;;;;;5115642;28;20035;-82
2022/03/29 01:00:32;;;;;;;29.08;22.75;;;11.70;88.00;;;;;;5096790;28;20059;-82
2022/03/29 01:02:59;;;;;;;27.95;22.38;;;11.70;88.10;;;;;;5115801;28;20020;-82
2022/03/29 01:05:26;;;;;;;26.58;21.02;;;11.70;88.40;;;;;;5080649;28;20019;-81
2022/03/29 01:07:54;;;;;;;30.63;23.17;;;11.60;88.40;;;;;;5080847;28;20532;-83
2022/03/29 01:10:20;;;;;;;32.10;24.02;;;11.60;89.10;;;;;;5097159;28;20061;-82
2022/03/29 01:12:46;;;;;;;31.40;22.70;;;11.60;89.30;;;;;;5064006;28;20039;-82
2022/03/29 01:15:13;;;;;;;32.00;24.65;;;11.60;89.40;;;;;;5097434;28;20015;-83
2022/03/29 01:17:41;;;;;;;34.35;24.13;;;11.50;89.60;;;;;;5063858;28;20024;-82
2022/03/29 01:20:33;;;;;;;30.98;24.05;;;11.50;90.00;;;;;;5080165;28;20028;-82
2022/03/29 01:23:01;;;;;;;32.97;23.60;;;11.50;90.10;;;;;;5112670;28;20047;-82
2022/03/29 01:25:36;;;;;;;33.58;25.27;;;11.40;90.20;;;;;;5096877;28;20494;-82
2022/03/29 01:28:04;;;;;;;33.55;23.92;;;11.40;90.50;;;;;;5120259;27;20031;-82
2022/03/29 01:30:29;;;;;;;31.08;24.77;;;11.30;90.60;;;;;;5100424;27;20023;-83
2022/03/29 01:32:56;;;;;;;36.58;25.10;;;11.30;90.80;;;;;;5117496;27;20027;-82
2022/03/29 01:35:24;;;;;;;35.75;25.15;;;11.30;90.90;;;;;;5135605;27;20023;-82
2022/03/29 01:37:51;;;;;;;30.75;24.25;;;11.30;90.90;;;;;;5135681;27;20116;-81
2022/03/29 01:40:20;;;;;;;33.55;24.30;;;11.30;91.00;;;;;;5117287;27;20114;-82
2022/03/29 01:42:56;;;;;;;32.30;24.02;;;11.20;91.10;;;;;;5117159;27;20031;-81
2022/03/29 01:45:25;;;;;;;34.40;24.77;;;11.30;91.20;;;;;;5135114;27;20490;-82
2022/03/29 01:47:52;;;;;;;34.95;25.80;;;11.20;91.10;;;;;;5099760;27;20084;-84
2022/03/29 01:50:18;;;;;;;32.25;24.88;;;11.20;91.20;;;;;;5117067;27;20364;-82
2022/03/29 01:52:46;;;;;;;31.38;24.73;;;11.10;91.30;;;;;;5116955;27;20027;-82
2022/03/29 01:55:16;;;;;;;34.90;26.23;;;11.10;91.40;;;;;;5135611;27;20029;-82
2022/03/29 01:57:42;;;;;;;33.45;24.75;;;11.10;91.60;;;;;;5117041;27;20042;-82
2022/03/29 02:02:55;;;;;;;32.65;24.83;;;11.00;91.90;;;;;;5119658;27;20084;-82
2022/03/29 02:05:21;;;;;;;28.88;23.58;;;11.00;92.00;;;;;;5117285;27;20305;-81
2022/03/29 02:07:47;;;;;;;33.55;25.77;;;11.00;92.10;;;;;;5116603;27;20018;-82
2022/03/29 02:10:17;;;;;;;34.13;26.52;;;11.00;92.20;;;;;;5099603;27;20449;-82
2022/03/29 02:12:43;;;;;;;33.70;24.40;;;10.90;92.20;;;;;;5116423;27;20490;-82
2022/03/29 02:15:09;;;;;;;31.58;25.08;;;10.90;92.40;;;;;;5116454;27;20284;-82
2022/03/29 02:17:35;;;;;;;33.38;24.63;;;10.90;92.40;;;;;;5116223;27;20049;-82
2022/03/29 02:20:02;;;;;;;34.47;26.25;;;10.90;92.60;;;;;;5116360;27;20046;-82
2022/03/29 02:22:28;;;;;;;33.95;24.83;;;10.90;92.50;;;;;;5116494;27;20034;-82
2022/03/29 02:24:54;;;;;;;31.58;25.60;;;10.80;92.80;;;;;;5099443;27;20024;-82
2022/03/29 02:27:19;;;;;;;35.75;26.50;;;10.80;92.80;;;;;;5116571;27;20031;-83
2022/03/29 02:29:45;;;;;;;34.45;24.95;;;10.80;92.90;;;;;;5099324;27;20064;-81
2022/03/29 02:32:11;;;;;;;31.33;24.60;;;10.80;93.00;;;;;;5099453;27;20502;-83
2022/03/29 02:34:36;;;;;;;32.90;25.20;;;10.80;93.00;;;;;;5115925;27;20047;-81
2022/03/29 02:37:02;;;;;;;34.53;24.60;;;10.70;92.90;;;;;;5103367;27;20027;-81
2022/03/29 02:39:28;;;;;;;33.42;25.25;;;10.70;93.00;;;;;;5122915;27;20084;-81
2022/03/29 02:41:54;;;;;;;32.15;23.88;;;10.60;93.20;;;;;;5123009;27;20111;-82
2022/03/29 02:44:19;;;;;;;34.58;24.50;;;10.60;93.30;;;;;;5101641;27;20030;-85
2022/03/29 02:46:45;;;;;;;34.65;25.42;;;10.60;93.50;;;;;;5115937;27;20427;-83
2022/03/29 02:49:11;;;;;;;31.30;23.52;;;10.50;93.60;;;;;;5098011;27;20134;-82
2022/03/29 02:51:36;;;;;;;31.45;23.23;;;10.50;93.60;;;;;;5116002;27;20029;-82
2022/03/29 02:54:02;;;;;;;34.22;24.58;;;10.50;93.60;;;;;;5134603;27;20372;-82
2022/03/29 02:56:29;;;;;;;37.17;24.38;;;10.40;93.80;;;;;;5134261;27;20035;-82
2022/03/29 02:58:55;;;;;;;32.08;23.85;;;10.40;94.10;;;;;;5134353;27;20158;-82
2022/03/29 03:01:21;;;;;;;33.00;23.60;;;10.40;94.30;;;;;;5099007;27;20050;-81
2022/03/29 03:03:46;;;;;;;33.75;24.52;;;10.40;94.50;;;;;;5098901;27;20038;-81
2022/03/29 03:06:12;;;;;;;32.22;23.83;;;10.30;94.60;;;;;;5098322;28;20035;-81
2022/03/29 03:08:38;;;;;;;37.97;24.98;;;10.30;94.60;;;;;;5115586;28;20030;-81
2022/03/29 03:11:03;;;;;;;32.97;24.25;;;10.30;94.80;;;;;;5117637;28;20023;-82
2022/03/29 03:13:29;;;;;;;36.47;24.38;;;10.30;94.90;;;;;;5133933;28;20035;-82
2022/03/29 03:15:55;;;;;;;34.33;24.52;;;10.30;95.10;;;;;;5115509;28;20076;-83
2022/03/29 03:18:21;;;;;;;37.78;25.40;;;10.30;95.30;;;;;;5081019;28;20122;-81
2022/03/29 03:20:46;;;;;;;41.15;26.00;;;10.20;95.30;;;;;;5065732;28;20168;-81
2022/03/29 03:23:12;;;;;;;32.55;23.85;;;10.20;95.30;;;;;;5099626;28;20365;-81
2022/03/29 03:25:38;;;;;;;36.75;27.05;;;10.20;95.50;;;;;;5099184;28;20034;-82
2022/03/29 03:28:05;;;;;;;37.28;25.55;;;10.20;95.60;;;;;;5082319;28;20031;-82
2022/03/29 03:30:30;;;;;;;38.17;26.30;;;10.20;95.70;;;;;;5082200;28;20353;-83
2022/03/29 03:32:56;;;;;;;37.17;25.67;;;10.20;95.80;;;;;;5099653;28;20103;-83
2022/03/29 03:35:22;;;;;;;38.58;26.92;;;10.20;96.00;;;;;;5099065;28;20032;-82
2022/03/29 03:37:49;;;;;;;39.22;25.73;;;10.20;96.10;;;;;;5099225;28;20055;-83
2022/03/29 03:40:14;;;;;;;40.08;25.88;;;10.20;96.10;;;;;;5099154;28;20481;-82
2022/03/29 03:42:41;;;;;;;37.33;26.15;;;10.20;96.20;;;;;;5099014;28;20115;-82
2022/03/29 03:45:07;;;;;;;37.85;26.05;;;10.10;96.40;;;;;;5099381;28;20034;-82
2022/03/29 03:47:35;;;;;;;38.13;26.38;;;10.10;96.50;;;;;;5098851;28;20035;-82
2022/03/29 03:50:01;;;;;;;40.55;26.75;;;10.10;96.70;;;;;;5098974;28;20052;-82
2022/03/29 03:52:27;;;;;;;39.58;27.15;;;10.10;96.80;;;;;;5081950;28;20132;-86
2022/03/29 03:54:54;;;;;;;37.90;26.00;;;10.10;96.80;;;;;;5082386;28;20487;-82
2022/03/29 03:57:20;;;;;;;38.70;26.48;;;10.10;96.80;;;;;;5082177;28;20036;-81
2022/03/29 03:59:48;;;;;;;41.05;28.08;;;10.10;96.90;;;;;;5065192;28;20031;-81
2022/03/29 04:02:14;;;;;;;39.50;26.20;;;10.10;97.00;;;;;;5099056;28;20051;-82
2022/03/29 04:04:40;;;;;;;37.63;26.33;;;10.10;97.10;;;;;;5116645;28;20027;-81
2022/03/29 04:07:07;;;;;;;38.53;26.88;;;10.00;97.10;;;;;;5081986;28;20023;-82
2022/03/29 04:09:35;;;;;;;40.38;26.05;;;10.00;97.30;;;;;;5065253;28;20050;-81
2022/03/29 04:12:03;;;;;;;41.75;26.73;;;10.00;97.40;;;;;;5081951;28;20100;-82
2022/03/29 04:14:28;;;;;;;37.05;26.25;;;10.00;97.40;;;;;;5098551;28;20069;-81
2022/03/29 04:16:54;;;;;;;40.03;26.15;;;10.10;97.60;;;;;;5117156;28;20048;-82
2022/03/29 04:19:20;;;;;;;43.95;27.45;;;10.00;97.70;;;;;;5081442;28;20028;-82
2022/03/29 04:21:46;;;;;;;37.28;27.15;;;10.00;97.70;;;;;;5098013;28;20494;-82
2022/03/29 04:24:13;;;;;;;45.00;28.05;;;10.00;97.80;;;;;;5098365;28;20383;-82
2022/03/29 04:26:38;;;;;;;38.90;26.52;;;10.00;97.90;;;;;;5116299;28;20027;-83
2022/03/29 04:29:04;;;;;;;47.67;28.88;;;10.00;97.90;;;;;;5092054;27;20038;-82
2022/03/29 04:31:30;;;;;;;43.25;28.50;;;10.00;98.00;;;;;;5100665;27;20171;-82
2022/03/29 04:33:58;;;;;;;39.72;27.38;;;10.00;98.00;;;;;;5118512;27;20019;-82
2022/03/29 04:36:24;;;;;;;40.97;27.40;;;10.00;98.10;;;;;;5136899;27;20026;-82
2022/03/29 04:38:50;;;;;;;44.10;28.13;;;10.00;98.20;;;;;;5101391;27;20368;-82
2022/03/29 04:41:16;;;;;;;45.45;27.92;;;10.00;98.10;;;;;;5100958;27;20046;-82
2022/03/29 04:43:41;;;;;;;43.63;26.60;;;9.90;98.20;;;;;;5118252;27;20038;-82
2022/03/29 04:46:07;;;;;;;39.35;26.65;;;9.90;98.30;;;;;;5118481;27;20038;-82
2022/03/29 04:48:33;;;;;;;36.15;24.10;;;9.90;98.30;;;;;;5100838;27;20095;-88
2022/03/29 04:50:59;;;;;;;47.13;27.50;;;9.80;98.30;;;;;;5100857;27;20414;-81
2022/03/29 04:53:24;;;;;;;41.83;27.02;;;9.80;98.40;;;;;;5101292;27;20031;-83
2022/03/29 04:55:52;;;;;;;42.40;27.17;;;9.80;98.60;;;;;;5118048;27;20367;-83
2022/03/29 04:58:18;;;;;;;42.72;26.50;;;9.80;98.80;;;;;;5101357;27;20035;-83
2022/03/29 05:00:44;;;;;;;40.58;26.40;;;9.80;98.80;;;;;;5100946;27;20034;-83
2022/03/29 05:03:09;;;;;;;39.60;25.90;;;9.80;98.80;;;;;;5101106;27;20075;-82
2022/03/29 05:05:35;;;;;;;45.50;27.00;;;9.80;98.80;;;;;;5117946;27;20027;-84
2022/03/29 05:08:02;;;;;;;45.75;25.85;;;9.70;99.00;;;;;;5117188;27;20131;-82
2022/03/29 05:10:27;;;;;;;39.88;26.00;;;9.80;99.00;;;;;;5135490;27;20148;-83
2022/03/29 05:12:54;;;;;;;42.67;26.00;;;9.70;99.00;;;;;;5117511;27;20060;-82
2022/03/29 05:15:20;;;;;;;43.60;27.20;;;9.70;99.20;;;;;;5117849;27;20468;-85
2022/03/29 05:17:46;;;;;;;39.97;26.58;;;9.70;99.40;;;;;;5144774;27;20054;-81
2022/03/29 05:20:15;;;;;;;42.28;26.42;;;9.70;99.50;;;;;;5118047;27;20067;-82
2022/03/29 05:22:51;;;;;;;40.95;26.63;;;9.70;99.70;;;;;;5117803;27;20038;-82
2022/03/29 05:25:19;;;;;;;40.25;24.52;;;9.70;99.80;;;;;;5136319;27;20019;-82
2022/03/29 05:27:45;;;;;;;43.45;27.33;;;9.70;99.90;;;;;;5117439;27;20469;-81
2022/03/29 05:30:12;;;;;;;45.03;27.55;;;9.70;99.90;;;;;;5126199;27;20047;-81
2022/03/29 05:32:39;;;;;;;39.38;25.58;;;9.70;99.90;;;;;;5097045;28;20452;-84
2022/03/29 05:35:09;;;;;;;43.70;27.20;;;9.70;99.90;;;;;;5080435;28;20093;-81
2022/03/29 05:37:36;;;;;;;42.37;26.47;;;9.70;99.90;;;;;;5080696;28;20038;-82
2022/03/29 05:40:03;;;;;;;43.63;27.58;;;9.70;99.90;;;;;;5114875;28;20043;-82
2022/03/29 05:42:29;;;;;;;45.08;27.85;;;9.70;99.90;;;;;;5079646;28;20051;-81
2022/03/29 05:44:55;;;;;;;43.88;28.33;;;9.70;99.90;;;;;;5097024;28;20431;-82
2022/03/29 05:50:05;;;;;;;43.13;27.30;;;9.70;99.90;;;;;;5099037;28;20095;-82
2022/03/29 05:52:30;;;;;;;40.33;26.25;;;9.70;99.90;;;;;;5079995;28;20405;-82
2022/03/29 05:54:57;;;;;;;42.92;27.70;;;9.60;99.90;;;;;;5096744;28;20039;-82
2022/03/29 05:57:23;;;;;;;44.08;27.58;;;9.70;99.90;;;;;;5096711;28;20091;-81
2022/03/29 05:59:49;;;;;;;44.03;26.23;;;9.60;99.90;;;;;;5079514;28;20042;-84
2022/03/29 06:02:14;;;;;;;45.58;27.13;;;9.60;99.90;;;;;;5079195;28;20027;-81
2022/03/29 06:04:40;;;;;;;46.92;27.33;;;9.60;99.90;;;;;;5096574;28;20172;-82
2022/03/29 06:07:07;;;;;;;42.88;26.52;;;9.60;99.90;;;;;;5095929;28;20038;-82
2022/03/29 06:09:34;;;;;;;43.40;27.27;;;9.60;99.90;;;;;;5096973;28;20039;-84
2022/03/29 06:11:59;;;;;;;42.78;26.73;;;9.60;99.90;;;;;;5096055;28;20034;-82
2022/03/29 06:14:25;;;;;;;47.92;27.98;;;9.50;99.90;;;;;;5079241;28;20020;-81
2022/03/29 06:16:51;;;;;;;44.83;28.92;;;9.50;99.90;;;;;;5096146;28;20031;-82
2022/03/29 06:19:17;;;;;;;45.88;28.17;;;9.60;99.90;;;;;;5063460;28;20035;-83
2022/03/29 06:21:43;;;;;;;37.88;23.98;;;9.60;99.90;;;;;;5062493;28;20032;-87
2022/03/29 06:24:10;;;;;;;43.95;26.08;;;9.50;99.90;;;;;;5096286;28;20059;-82
2022/03/29 06:26:38;;;;;;;43.33;26.15;;;9.50;99.90;;;;;;5114380;28;20027;-81
2022/03/29 06:29:05;;;;;;;46.85;28.27;;;9.50;99.90;;;;;;5096156;28;20065;-82
2022/03/29 06:31:31;;;;;;;43.53;26.83;;;9.50;99.90;;;;;;5095891;28;20111;-81
2022/03/29 06:33:57;;;;;;;41.85;25.70;;;9.50;99.90;;;;;;5079053;28;20055;-82
2022/03/29 06:36:22;;;;;;;41.25;25.65;;;9.50;99.90;;;;;;5095955;28;20027;-85
2022/03/29 06:38:49;;;;;;;40.58;25.45;;;9.50;99.90;;;;;;5095653;28;20023;-84
2022/03/29 06:41:15;;;;;;;40.45;24.92;;;9.50;99.90;;;;;;5079060;28;20027;-83
2022/03/29 06:43:41;;;;;;;42.10;26.13;;;9.60;99.90;;;;;;5062434;28;20436;-83
2022/03/29 06:46:08;;;;;;;40.72;24.88;;;9.60;99.90;;;;;;5097221;28;20030;-84
2022/03/29 06:48:38;;;;;;;39.13;24.83;;;9.50;99.90;;;;;;5095988;28;20387;-83
2022/03/29 06:51:04;;;;;;;40.13;23.50;;;9.60;99.90;;;;;;5095714;28;20036;-85
2022/03/29 06:53:30;;;;;;;38.17;23.52;;;9.60;99.90;;;;;;5061493;28;20043;-82
2022/03/29 06:55:56;;;;;;;36.22;23.95;;;9.60;99.90;;;;;;5095784;28;20499;-82
2022/03/29 06:58:21;;;;;;;33.80;22.48;;;9.60;99.90;;;;;;5078408;28;20032;-83
2022/03/29 07:00:47;;;;;;;36.40;23.25;;;9.60;99.90;;;;;;5078959;28;20451;-90
2022/03/29 07:03:13;;;;;;;38.50;25.30;;;9.60;99.90;;;;;;5078948;28;20468;-82
2022/03/29 07:05:42;;;;;;;40.25;24.83;;;9.60;99.90;;;;;;5099149;28;20031;-82
2022/03/29 07:08:12;;;;;;;41.33;24.67;;;9.60;99.90;;;;;;5117123;28;20506;-82
2022/03/29 07:13:23;;;;;;;37.85;23.65;;;9.60;99.90;;;;;;5113867;28;20042;-83
2022/03/29 07:15:50;;;;;;;39.28;23.75;;;9.60;99.90;;;;;;5095323;28;20525;-82
2022/03/29 07:18:19;;;;;;;39.03;23.83;;;9.50;99.90;;;;;;5095547;28;20038;-82
2022/03/29 07:20:45;;;;;;;36.75;23.48;;;9.60;99.90;;;;;;5095452;28;20479;-82
2022/03/29 07:23:11;;;;;;;38.50;23.95;;;9.50;99.90;;;;;;5095451;28;20034;-83
2022/03/29 07:25:37;;;;;;;37.88;24.45;;;9.50;99.90;;;;;;5096129;28;20460;-84
2022/03/29 07:28:04;;;;;;;39.70;24.75;;;9.50;99.90;;;;;;5079227;28;20028;-84
2022/03/29 07:30:33;;;;;;;39.45;23.90;;;9.50;99.90;;;;;;5095197;28;20055;-82
2022/03/29 07:32:59;;;;;;;38.33;23.98;;;9.50;99.90;;;;;;5095421;28;20149;-83
2022/03/29 07:35:28;;;;;;;43.05;26.23;;;9.50;99.90;;;;;;5078682;28;20035;-83
2022/03/29 07:37:55;;;;;;;41.05;23.38;;;9.50;99.90;;;;;;5113632;28;20016;-86
2022/03/29 07:40:23;;;;;;;40.72;24.17;;;9.50;99.90;;;;;;5095382;28;20024;-83
2022/03/29 07:42:51;;;;;;;39.60;23.45;;;9.50;99.90;;;;;;5095237;28;20028;-83
2022/03/29 07:45:18;;;;;;;41.40;24.75;;;9.50;99.90;;;;;;5062618;28;20023;-83
2022/03/29 07:47:45;;;;;;;38.10;23.02;;;9.50;99.90;;;;;;5113915;28;20140;-83
2022/03/29 07:50:12;;;;;;;39.55;24.30;;;9.50;99.90;;;;;;5094825;28;20048;-83
2022/03/29 07:52:42;;;;;;;40.38;23.38;;;9.50;99.90;;;;;;5095094;28;20034;-82
2022/03/29 07:55:10;;;;;;;40.92;24.55;;;9.50;99.90;;;;;;5079388;28;20039;-82
2022/03/29 07:57:36;;;;;;;35.65;22.92;;;9.50;99.90;;;;;;5095363;28;20051;-81
2022/03/29 08:00:31;;;;;;;37.95;23.13;;;9.50;99.90;;;;;;5113876;28;20035;-83
2022/03/29 08:02:51;;;;;;;37.20;23.50;;;9.50;99.90;;;;;;5113677;28;20035;-84
2022/03/29 08:05:17;;;;;;;42.65;25.23;;;9.50;99.90;;;;;;5097450;28;20433;-84
2022/03/29 08:07:42;;;;;;;39.72;24.38;;;9.50;99.90;;;;;;5099489;28;20023;-83
2022/03/29 08:10:08;;;;;;;38.85;24.30;;;9.50;99.90;;;;;;5083633;28;20031;-82
2022/03/29 08:12:39;;;;;;;42.15;26.17;;;9.50;99.90;;;;;;5085452;28;20169;-82
2022/03/29 08:15:06;;;;;;;41.93;25.27;;;9.50;99.90;;;;;;5120728;28;20024;-83
2022/03/29 08:17:33;;;;;;;41.20;26.58;;;9.40;99.90;;;;;;5108387;28;20020;-84
2022/03/29 08:19:59;;;;;;;39.42;24.83;;;9.40;99.90;;;;;;5090025;28;20111;-83
2022/03/29 08:22:25;;;;;;;36.08;23.55;;;9.40;99.90;;;;;;5073046;28;20065;-83
2022/03/29 08:24:51;;;;;;;43.78;24.48;;;9.40;99.90;;;;;;5095573;28;20100;-82
2022/03/29 08:27:16;;;;;;;38.15;24.85;;;9.50;99.90;;;;;;5118141;28;20383;-84
2022/03/29 08:29:43;;;;;;;42.17;25.40;;;9.50;99.90;;;;;;5138411;28;20061;-84
2022/03/29 08:32:09;;;;;;;42.90;25.23;;;9.50;99.90;;;;;;5105361;28;20091;-87
2022/03/29 08:34:34;;;;;;;41.53;26.02;;;9.50;99.90;;;;;;5088529;28;20015;-84
2022/03/29 08:37:00;;;;;;;42.53;25.92;;;9.50;99.90;;;;;;5119202;28;20023;-85
2022/03/29 08:39:26;;;;;;;45.17;25.85;;;9.50;99.90;;;;;;5110955;28;20436;-85
2022/03/29 08:42:12;;;;;;;48.42;27.20;;;9.50;99.90;;;;;;5083683;28;20043;-84
2022/03/29 08:44:41;;;;;;;46.88;25.70;;;9.50;99.90;;;;;;5098103;28;20051;-83
2022/03/29 08:47:08;;;;;;;44.17;27.17;;;9.60;99.90;;;;;;5117100;28;20028;-83
2022/03/29 08:49:34;;;;;;;48.05;27.77;;;9.60;99.90;;;;;;5098087;28;20055;-84
2022/03/29 08:52:01;;;;;;;47.50;27.27;;;9.60;99.90;;;;;;5082469;28;20085;-85
2022/03/29 08:54:27;;;;;;;44.83;27.95;;;9.60;99.90;;;;;;5099329;28;20035;-83
2022/03/29 08:56:53;;;;;;;45.83;26.95;;;9.60;99.90;;;;;;5098123;28;20406;-83
2022/03/29 08:59:20;;;;;;;40.85;26.23;;;9.70;99.90;;;;;;5080988;28;20039;-83
2022/03/29 09:01:47;;;;;;;42.78;27.45;;;9.70;99.90;;;;;;5098025;28;20019;-83
2022/03/29 09:04:13;;;;;;;45.40;26.98;;;9.80;99.90;;;;;;5097789;28;20024;-83
2022/03/29 09:06:56;;;;;;;44.22;27.27;;;9.80;99.90;;;;;;5097741;28;20515;-83
2022/03/29 09:09:33;;;;;;;45.33;28.20;;;9.90;99.90;;;;;;5118173;27;20035;-82
2022/03/29 09:12:09;;;;;;;43.00;26.15;;;9.90;99.90;;;;;;5117149;27;20109;-83
2022/03/29 09:14:59;;;;;;;44.17;25.15;;;9.90;99.90;;;;;;5136182;27;20098;-83
2022/03/29 09:17:29;;;;;;;42.78;25.67;;;9.90;99.90;;;;;;5116746;27;20023;-83
2022/03/29 09:19:55;;;;;;;43.10;25.95;;;10.00;99.90;;;;;;5117728;27;20029;-83
2022/03/29 09:22:40;;;;;;;45.38;27.35;;;10.00;99.70;;;;;;5117572;27;20023;-84
2022/03/29 09:25:07;;;;;;;38.25;25.00;;;10.00;99.30;;;;;;5117642;27;20046;-83
2022/03/29 09:27:59;;;;;;;42.00;25.08;;;10.00;99.30;;;;;;5117613;27;20079;-84
2022/03/29 09:30:28;;;;;;;40.35;25.20;;;10.10;99.10;;;;;;5101961;27;20035;-83
2022/03/29 09:33:04;;;;;;;47.28;28.27;;;10.00;98.90;;;;;;5117261;27;20471;-82
2022/03/29 09:35:31;;;;;;;44.55;26.75;;;10.00;98.70;;;;;;5117474;27;20050;-84
2022/03/29 09:37:58;;;;;;;43.58;27.13;;;10.00;98.20;;;;;;5100553;27;20027;-83
2022/03/29 09:40:34;;;;;;;43.35;27.13;;;10.00;98.30;;;;;;5117373;27;20077;-84
2022/03/29 09:43:08;;;;;;;44.65;28.15;;;10.00;98.10;;;;;;5117292;27;20019;-83
2022/03/29 09:45:40;;;;;;;44.97;28.15;;;10.00;98.10;;;;;;5117197;27;20129;-83
2022/03/29 09:48:41;;;;;;;46.38;28.98;;;9.90;98.10;;;;;;5135378;27;20027;-84
2022/03/29 09:51:07;;;;;;;;;;;10.00;98.20;;;;;;5015268;28;20053;-83
2022/03/29 09:53:44;;;;;;;49.92;28.75;;;9.90;98.40;;;;;;5112956;27;20381;-83
2022/03/29 09:56:12;;;;;;;49.17;28.45;;;9.90;98.30;;;;;;5116837;27;20356;-83
2022/03/29 09:58:38;;;;;;;48.97;29.85;;;10.00;98.30;;;;;;5116897;27;20027;-83
2022/03/29 10:01:06;;;;;;;46.95;28.80;;;10.00;98.60;;;;;;5116831;27;20452;-82
2022/03/29 10:03:36;;;;;;;47.38;27.65;;;10.00;98.40;;;;;;5116860;27;20100;-84
2022/03/29 10:06:04;;;;;;;47.13;27.40;;;10.10;98.20;;;;;;5116538;27;20023;-81
2022/03/29 10:11:26;;;;;;;;;;;10.10;98.30;;;;;;5141530;27;20037;-81
2022/03/29 10:13:53;;;;;;;46.95;27.50;;;10.20;98.40;;;;;;5122421;27;19903;-81
2022/03/29 10:16:19;;;;;;;49.03;27.88;;;10.30;98.30;;;;;;5118802;27;20027;-82
2022/03/29 10:18:46;;;;;;;49.38;28.48;;;10.30;98.20;;;;;;5116853;27;20031;-82
2022/03/29 10:21:16;;;;;;;47.60;27.70;;;10.40;98.10;;;;;;5116210;27;20035;-83
2022/03/29 10:23:46;;;;;;;46.75;28.67;;;10.50;97.80;;;;;;5116463;27;20038;-81
2022/03/29 10:26:18;;;;;;;44.95;27.67;;;10.60;97.40;;;;;;5116041;27;20420;-82
2022/03/29 10:28:48;;;;;;;48.08;29.90;;;10.60;97.40;;;;;;5099832;27;20089;-81
2022/03/29 10:31:33;;;;;;;48.75;30.17;;;10.70;97.30;;;;;;5116015;27;20176;-83
2022/03/29 10:34:18;;;;;;;47.17;29.23;;;10.70;96.80;;;;;;5116163;27;20106;-82
2022/03/29 10:37:11;;;;;;;47.47;28.50;;;10.80;96.60;;;;;;5117793;27;20068;-82
2022/03/29 10:40:00;;;;;;;49.55;29.23;;;10.80;96.50;;;;;;5116726;27;20030;-82
2022/03/29 10:42:41;;;;;;;48.63;28.48;;;10.80;96.50;;;;;;5100382;27;20024;-83
2022/03/29 10:45:19;;;;;;;52.53;29.88;;;11.00;96.50;;;;;;5136421;27;20098;-82
2022/03/29 10:48:02;;;;;;;47.03;29.45;;;11.00;96.50;;;;;;5134451;27;20023;-82
2022/03/29 10:50:47;;;;;;;43.50;27.27;;;11.10;96.20;;;;;;5134042;27;20514;-82
2022/03/29 10:53:27;;;;;;;47.70;29.25;;;11.20;96.20;;;;;;5115400;27;20035;-86
2022/03/29 10:56:15;;;;;;;44.92;27.90;;;11.20;96.20;;;;;;5134259;27;20106;-83
2022/03/29 10:59:02;;;;;;;43.30;28.00;;;11.20;95.00;;;;;;5115997;27;20031;-82
2022/03/29 11:01:29;;;;;;;47.60;30.33;;;11.30;95.30;;;;;;5134448;27;20042;-83
2022/03/29 11:03:59;;;;;;;47.65;29.27;;;11.40;95.50;;;;;;5129188;27;20020;-82
2022/03/29 11:06:25;;;;;;;45.87;30.20;;;11.50;95.30;;;;;;5123665;27;20051;-81
2022/03/29 11:09:06;;;;;;;43.40;28.20;;;11.50;95.30;;;;;;5098836;28;20038;-82
2022/03/29 11:11:43;;;;;;;;;;;11.60;95.20;;;;;;5116118;28;20473;-82
2022/03/29 11:14:27;;;;;;;46.45;28.13;;;11.70;95.30;;;;;;5133770;28;20359;-85
2022/03/29 11:17:14;;;;;;;43.47;27.40;;;11.80;94.50;;;;;;5134056;28;20412;-83
2022/03/29 11:19:44;;;;;;;45.17;28.77;;;11.90;94.20;;;;;;5133869;28;20493;-82
2022/03/29 11:22:29;;;;;;;44.58;28.42;;;11.90;93.80;;;;;;5115393;28;20081;-83
2022/03/29 11:24:56;;;;;;;47.30;28.13;;;12.00;93.80;;;;;;5115485;28;20535;-82
2022/03/29 11:27:24;;;;;;;44.35;28.92;;;12.10;93.40;;;;;;5115566;28;20022;-83
2022/03/29 11:29:51;;;;;;;42.28;28.25;;;12.10;93.40;;;;;;5133930;28;20071;-83
2022/03/29 11:32:17;;;;;;;41.22;26.55;;;12.20;93.50;;;;;;5115128;28;20035;-83
2022/03/29 11:34:44;;;;;;;42.08;27.52;;;12.30;93.40;;;;;;5133736;28;20028;-82
2022/03/29 11:37:28;;;;;;;43.17;28.42;;;12.40;93.50;;;;;;5115336;28;20030;-82
2022/03/29 11:39:54;;;;;;;38.45;27.15;;;12.50;92.90;;;;;;5117359;27;20023;-82
2022/03/29 11:42:20;;;;;;;44.00;29.77;;;12.70;92.60;;;;;;5102323;27;20083;-83
2022/03/29 11:44:51;;;;;;;42.50;29.42;;;12.70;92.50;;;;;;5119592;27;20024;-83
2022/03/29 11:47:17;;;;;;;38.92;26.27;;;12.80;92.30;;;;;;5119163;27;20029;-83
2022/03/29 11:49:45;;;;;;;42.67;28.35;;;12.90;92.30;;;;;;5118680;27;20055;-82
2022/03/29 11:52:13;;;;;;;38.95;26.63;;;13.10;92.00;;;;;;5118775;27;20027;-83
2022/03/29 11:54:47;;;;;;;41.40;27.10;;;13.20;91.30;;;;;;5137578;27;20031;-82
2022/03/29 11:57:19;;;;;;;37.97;25.63;;;13.30;91.30;;;;;;5119400;27;20348;-82
2022/03/29 11:59:45;;;;;;;39.08;26.98;;;13.40;91.40;;;;;;5137655;27;20031;-82
2022/03/29 12:02:10;;;;;;;41.30;28.15;;;13.50;91.00;;;;;;5102299;27;20031;-83
2022/03/29 12:04:39;;;;;;;38.67;26.98;;;13.60;90.90;;;;;;5085079;27;20080;-81
2022/03/29 12:07:05;;;;;;;38.10;26.80;;;13.70;90.90;;;;;;5118355;27;20051;-83
2022/03/29 12:09:31;;;;;;;36.95;26.95;;;13.80;90.50;;;;;;5118956;27;20332;-82
2022/03/29 12:12:03;;;;;;;38.90;28.23;;;13.90;90.20;;;;;;5118866;27;20080;-82
2022/03/29 12:14:31;;;;;;;40.20;27.40;;;14.00;89.80;;;;;;5102378;27;20031;-82
2022/03/29 12:17:04;;;;;;;36.80;26.65;;;14.00;89.40;;;;;;5118875;27;20038;-82
2022/03/29 12:19:32;;;;;;;35.42;25.98;;;14.20;89.70;;;;;;5118660;27;20027;-82
2022/03/29 12:22:02;;;;;;;38.13;26.95;;;14.30;89.30;;;;;;5118789;27;20026;-82
2022/03/29 12:24:44;;;;;;;38.42;27.20;;;14.30;87.90;;;;;;5118454;27;20467;-82
2022/03/29 12:27:14;;;;;;;36.72;26.63;;;14.50;87.80;;;;;;5137449;27;20027;-82
2022/03/29 12:29:44;;;;;;;38.47;28.35;;;14.50;87.90;;;;;;5118346;27;20077;-82
2022/03/29 12:32:10;;;;;;;42.22;28.45;;;14.60;85.20;;;;;;5118475;27;20054;-82
2022/03/29 12:34:37;;;;;;;34.03;24.98;;;14.70;84.20;;;;;;5118010;27;20032;-83
2022/03/29 12:37:05;;;;;;;34.47;25.23;;;14.70;84.10;;;;;;5101607;27;20019;-82
2022/03/29 12:39:54;;;;;;;35.22;25.30;;;14.80;83.80;;;;;;5118312;27;20028;-82
2022/03/29 12:42:20;;;;;;;31.20;23.70;;;14.80;83.70;;;;;;5118292;27;20467;-82
2022/03/29 12:44:55;;;;;;;32.42;24.70;;;14.90;82.20;;;;;;5101127;27;20061;-81
2022/03/29 12:47:22;;;;;;;33.00;24.15;;;15.00;82.50;;;;;;5118198;27;20030;-84
2022/03/29 12:49:49;;;;;;;31.70;24.48;;;15.10;80.60;;;;;;5117772;27;20074;-82